createdAt,value
2017-06-03T00:00:41.670Z,48.40
2017-06-03T00:03:09.127Z,48.40
2017-06-03T00:05:36.575Z,48.40
2017-06-03T00:08:04.031Z,48.40
2017-06-03T00:10:31.487Z,48.30
2017-06-03T00:12:58.934Z,48.40
2017-06-03T00:15:26.428Z,48.30
2017-06-03T00:17:53.875Z,48.30
2017-06-03T00:20:21.343Z,48.30
2017-06-03T00:22:48.795Z,48.30
2017-06-03T00:25:16.255Z,48.30
2017-06-03T00:27:43.711Z,48.30
2017-06-03T00:30:11.174Z,48.40
2017-06-03T00:32:38.619Z,48.30
2017-06-03T00:35:06.084Z,48.30
2017-06-03T00:37:33.532Z,48.30
2017-06-03T00:40:00.999Z,48.30
2017-06-03T00:42:28.540Z,48.30
2017-06-03T00:44:55.995Z,48.30
2017-06-03T00:47:23.444Z,48.80
2017-06-03T00:49:50.899Z,48.30
2017-06-03T00:52:18.346Z,48.30
2017-06-03T00:54:45.927Z,48.40
2017-06-03T00:57:13.376Z,48.30
2017-06-03T00:59:40.946Z,48.30
2017-06-03T01:02:08.391Z,48.30
2017-06-03T01:04:35.839Z,48.30
2017-06-03T01:07:03.286Z,48.30
2017-06-03T01:09:30.746Z,48.30
2017-06-03T01:11:58.223Z,48.20
2017-06-03T01:14:25.678Z,48.30
2017-06-03T01:16:53.130Z,48.20
2017-06-03T01:19:20.578Z,48.30
2017-06-03T01:21:48.152Z,48.30
2017-06-03T01:24:15.599Z,48.30
2017-06-03T01:26:43.160Z,48.30
2017-06-03T01:29:10.611Z,48.30
2017-06-03T01:31:38.079Z,48.30
2017-06-03T01:34:05.527Z,48.30
2017-06-03T01:36:32.990Z,48.40
2017-06-03T01:39:00.438Z,48.40
2017-06-03T01:41:27.916Z,48.40
2017-06-03T01:43:56.131Z,48.40
2017-06-03T01:46:23.635Z,48.40
2017-06-03T01:48:51.090Z,48.40
2017-06-03T01:51:18.540Z,48.40
2017-06-03T01:53:46.098Z,48.40
2017-06-03T01:56:13.668Z,48.40
2017-06-03T01:58:41.118Z,48.90
2017-06-03T02:01:08.679Z,48.40
2017-06-03T02:03:36.134Z,48.40
2017-06-03T02:06:03.587Z,48.40
2017-06-03T02:08:31.151Z,48.40
2017-06-03T02:10:58.598Z,48.40
2017-06-03T02:13:26.062Z,48.40
2017-06-03T02:15:53.511Z,48.40
2017-06-03T02:18:20.987Z,48.40
2017-06-03T02:20:49.206Z,48.30
2017-06-03T02:23:16.707Z,48.30
2017-06-03T02:25:44.943Z,48.30
2017-06-03T02:28:12.396Z,48.20
2017-06-03T02:30:39.895Z,48.20
2017-06-03T02:33:07.351Z,48.20
2017-06-03T02:35:34.799Z,48.20
2017-06-03T02:38:02.252Z,48.20
2017-06-03T02:40:29.698Z,48.10
2017-06-03T02:42:57.174Z,48.10
2017-06-03T02:45:24.726Z,48.10
2017-06-03T02:47:52.295Z,48.10
2017-06-03T02:50:19.750Z,48.10
2017-06-03T02:52:47.206Z,48.10
2017-06-03T02:55:14.695Z,48.10
2017-06-03T02:57:42.142Z,48.10
2017-06-03T03:00:10.358Z,48.20
2017-06-03T03:02:37.811Z,48.10
2017-06-03T03:05:05.298Z,48.10
2017-06-03T03:07:32.759Z,48.10
2017-06-03T03:10:00.318Z,48.10
2017-06-03T03:12:27.775Z,48.10
2017-06-03T03:14:55.231Z,48.10
2017-06-03T03:17:22.782Z,48.10
2017-06-03T03:19:50.339Z,48.10
2017-06-03T03:22:17.794Z,48.00
2017-06-03T03:24:45.363Z,48.00
2017-06-03T03:27:12.818Z,48.00
2017-06-03T03:29:40.275Z,48.00
2017-06-03T03:32:07.730Z,48.00
2017-06-03T03:34:35.194Z,48.00
2017-06-03T03:37:02.646Z,48.50
2017-06-03T03:39:30.098Z,48.00
2017-06-03T03:41:57.548Z,48.00
2017-06-03T03:44:24.994Z,48.00
2017-06-03T03:46:52.448Z,48.10
2017-06-03T03:49:19.902Z,48.00
2017-06-03T03:51:47.345Z,48.00
2017-06-03T03:54:14.834Z,48.00
2017-06-03T03:56:42.395Z,48.00
2017-06-03T03:59:09.851Z,48.00
2017-06-03T04:01:37.306Z,48.00
2017-06-03T04:04:04.767Z,48.00
2017-06-03T04:06:32.318Z,48.00
2017-06-03T04:08:59.779Z,48.00
2017-06-03T04:11:27.227Z,48.00
2017-06-03T04:13:54.681Z,48.00
2017-06-03T04:16:22.130Z,48.00
2017-06-03T04:18:49.698Z,48.10
2017-06-03T04:21:17.262Z,48.10
2017-06-03T04:23:44.819Z,48.10
2017-06-03T04:26:12.266Z,48.10
2017-06-03T04:28:39.719Z,48.10
2017-06-03T04:31:07.167Z,48.10
2017-06-03T04:33:34.647Z,48.10
2017-06-03T04:36:02.103Z,48.10
2017-06-03T04:38:30.479Z,48.10
2017-06-03T04:40:58.039Z,48.10
2017-06-03T04:43:26.266Z,48.10
2017-06-03T04:45:53.735Z,48.20
2017-06-03T04:48:21.186Z,48.20
2017-06-03T04:50:48.686Z,48.20
2017-06-03T04:53:16.143Z,48.20
2017-06-03T04:55:43.615Z,48.20
2017-06-03T04:58:11.831Z,48.30
2017-06-03T05:00:39.293Z,48.20
2017-06-03T05:03:06.754Z,48.20
2017-06-03T05:05:34.220Z,48.20
2017-06-03T05:08:01.670Z,48.30
2017-06-03T05:10:29.122Z,48.30
2017-06-03T05:12:56.566Z,48.40
2017-06-03T05:15:24.067Z,48.40
2017-06-03T05:17:51.520Z,48.30
2017-06-03T05:20:19.079Z,48.40
2017-06-03T05:22:46.527Z,48.40
2017-06-03T05:25:13.978Z,48.40
2017-06-03T05:27:41.442Z,48.40
2017-06-03T05:30:08.891Z,48.40
2017-06-03T05:32:36.359Z,48.40
2017-06-03T05:35:03.806Z,48.40
2017-06-03T05:37:31.276Z,48.40
2017-06-03T05:39:58.718Z,48.40
2017-06-03T05:42:26.167Z,49.00
2017-06-03T05:44:53.622Z,48.50
2017-06-03T05:47:21.075Z,48.50
2017-06-03T05:49:48.535Z,48.50
2017-06-03T05:52:15.987Z,48.60
2017-06-03T05:54:43.448Z,48.60
2017-06-03T05:57:10.894Z,48.60
2017-06-03T05:59:38.371Z,48.60
2017-06-03T06:02:05.931Z,48.60
2017-06-03T06:04:33.392Z,48.70
2017-06-03T06:07:00.951Z,48.70
2017-06-03T06:09:28.400Z,48.70
2017-06-03T06:11:55.862Z,48.70
2017-06-03T06:14:23.318Z,48.70
2017-06-03T06:16:50.871Z,48.70
2017-06-03T06:19:18.318Z,48.80
2017-06-03T06:21:45.893Z,48.80
2017-06-03T06:24:13.347Z,48.90
2017-06-03T06:26:41.826Z,48.90
2017-06-03T06:29:09.283Z,49.00
2017-06-03T06:31:37.047Z,49.00
2017-06-03T06:34:04.495Z,49.00
2017-06-03T06:36:31.959Z,49.00
2017-06-03T06:38:59.414Z,49.00
2017-06-03T06:41:26.870Z,49.00
2017-06-03T06:43:54.326Z,49.10
2017-06-03T06:46:21.781Z,49.10
2017-06-03T06:48:49.243Z,49.20
2017-06-03T06:51:16.695Z,49.10
2017-06-03T06:53:44.155Z,49.20
2017-06-03T06:56:11.604Z,49.20
2017-06-03T06:58:39.072Z,49.20
2017-06-03T07:01:06.514Z,49.20
2017-06-03T07:03:33.978Z,49.30
2017-06-03T07:06:01.434Z,49.30
2017-06-03T07:08:28.883Z,49.30
2017-06-03T07:10:56.339Z,49.30
2017-06-03T07:13:23.902Z,49.30
2017-06-03T07:15:51.359Z,49.30
2017-06-03T07:18:19.834Z,49.40
2017-06-03T07:20:47.403Z,49.30
2017-06-03T07:23:14.846Z,49.40
2017-06-03T07:25:42.415Z,49.40
2017-06-03T07:28:09.862Z,49.40
2017-06-03T07:30:37.331Z,49.40
2017-06-03T07:33:04.783Z,49.40
2017-06-03T07:35:32.239Z,49.40
2017-06-03T07:37:59.699Z,49.40
2017-06-03T07:40:27.155Z,49.40
2017-06-03T07:42:54.611Z,49.40
2017-06-03T07:45:22.163Z,49.40
2017-06-03T07:47:49.623Z,49.30
2017-06-03T07:50:17.070Z,49.30
2017-06-03T07:52:44.519Z,49.30
2017-06-03T07:55:11.990Z,49.30
2017-06-03T07:57:39.547Z,49.30
2017-06-03T08:00:07.007Z,49.30
2017-06-03T08:02:34.455Z,49.30
2017-06-03T08:05:01.910Z,49.30
2017-06-03T08:07:29.366Z,49.30
2017-06-03T08:09:56.930Z,49.30
2017-06-03T08:12:24.492Z,49.30
2017-06-03T08:14:52.046Z,49.30
2017-06-03T08:17:19.504Z,49.30
2017-06-03T08:19:46.962Z,49.30
2017-06-03T08:22:14.419Z,49.40
2017-06-03T08:24:41.878Z,49.30
2017-06-03T08:27:09.430Z,49.40
2017-06-03T08:29:36.911Z,49.30
2017-06-03T08:32:05.122Z,49.30
2017-06-03T08:34:32.573Z,49.20
2017-06-03T08:37:00.019Z,49.20
2017-06-03T08:39:27.467Z,49.20
2017-06-03T08:41:54.918Z,49.30
2017-06-03T08:44:22.371Z,49.20
2017-06-03T08:46:50.611Z,49.30
2017-06-03T08:49:18.059Z,49.20
2017-06-03T08:51:45.529Z,49.20
2017-06-03T08:54:12.982Z,49.20
2017-06-03T08:56:40.443Z,49.20
2017-06-03T08:59:07.894Z,49.20
2017-06-03T09:01:35.371Z,49.20
2017-06-03T09:04:03.628Z,49.20
2017-06-03T09:06:31.087Z,49.20
2017-06-03T09:08:58.644Z,49.30
2017-06-03T09:11:26.091Z,49.20
2017-06-03T09:13:53.539Z,49.20
2017-06-03T09:16:20.988Z,49.20
2017-06-03T09:18:48.463Z,49.20
2017-06-03T09:21:16.018Z,49.30
2017-06-03T09:23:43.584Z,49.30
2017-06-03T09:26:11.039Z,49.30
2017-06-03T09:28:38.495Z,49.30
2017-06-03T09:31:06.054Z,49.20
2017-06-03T09:33:33.511Z,49.30
2017-06-03T09:36:00.958Z,49.30
2017-06-03T09:38:28.422Z,49.20
2017-06-03T09:40:55.871Z,49.20
2017-06-03T09:43:23.349Z,49.20
2017-06-03T09:45:51.613Z,49.30
2017-06-03T09:48:19.070Z,49.20
2017-06-03T09:50:46.524Z,49.30
2017-06-03T09:53:13.982Z,49.40
2017-06-03T09:55:41.434Z,49.50
2017-06-03T09:58:08.986Z,49.60
2017-06-03T10:00:36.440Z,49.60
2017-06-03T10:03:03.916Z,49.60
2017-06-03T10:05:31.351Z,49.70
2017-06-03T10:07:58.803Z,49.80
2017-06-03T10:10:26.259Z,49.80
2017-06-03T10:12:53.706Z,49.80
2017-06-03T10:15:21.271Z,49.80
2017-06-03T10:17:48.727Z,49.90
2017-06-03T10:20:16.173Z,49.90
2017-06-03T10:22:43.651Z,50.00
2017-06-03T10:25:11.095Z,50.00
2017-06-03T10:27:38.556Z,50.10
2017-06-03T10:30:05.998Z,50.10
2017-06-03T10:32:33.446Z,50.20
2017-06-03T10:35:00.894Z,50.30
2017-06-03T10:37:28.351Z,50.40
2017-06-03T10:39:55.804Z,50.40
2017-06-03T10:42:23.255Z,50.50
2017-06-03T10:44:50.753Z,50.40
2017-06-03T10:47:18.317Z,50.60
2017-06-03T10:49:45.763Z,50.40
2017-06-03T10:52:13.238Z,50.60
2017-06-03T10:54:40.687Z,50.50
2017-06-03T10:57:08.143Z,50.50
2017-06-03T10:59:35.592Z,51.20
2017-06-03T11:02:03.048Z,50.70
2017-06-03T11:04:30.495Z,50.70
2017-06-03T11:06:57.951Z,50.80
2017-06-03T11:09:25.418Z,50.90
2017-06-03T11:11:52.866Z,50.80
2017-06-03T11:14:20.338Z,50.90
2017-06-03T11:16:47.796Z,51.00
2017-06-03T11:19:15.255Z,51.00
2017-06-03T11:21:42.698Z,51.00
2017-06-03T11:24:10.154Z,50.90
2017-06-03T11:26:37.604Z,50.90
2017-06-03T11:29:05.055Z,50.90
2017-06-03T11:31:32.503Z,50.90
2017-06-03T11:33:59.954Z,50.90
2017-06-03T11:36:27.411Z,50.90
2017-06-03T11:38:54.862Z,50.90
2017-06-03T11:41:22.356Z,50.90
2017-06-03T11:43:49.803Z,50.90
2017-06-03T11:46:17.250Z,50.90
2017-06-03T11:48:44.699Z,50.80
2017-06-03T11:51:12.150Z,50.80
2017-06-03T11:53:39.599Z,50.80
2017-06-03T11:56:07.058Z,50.70
2017-06-03T11:58:34.509Z,50.70
2017-06-03T12:01:02.002Z,50.60
2017-06-03T12:03:29.458Z,50.40
2017-06-03T12:05:56.915Z,50.40
2017-06-03T12:08:24.468Z,50.40
2017-06-03T12:10:51.914Z,50.40
2017-06-03T12:13:19.363Z,50.30
2017-06-03T12:15:46.847Z,50.30
2017-06-03T12:18:14.303Z,50.20
2017-06-03T12:20:41.755Z,50.10
2017-06-03T12:23:09.210Z,50.20
2017-06-03T12:25:36.660Z,50.10
2017-06-03T12:28:04.119Z,50.10
2017-06-03T12:30:31.559Z,50.10
2017-06-03T12:32:59.010Z,50.00
2017-06-03T12:35:26.491Z,50.00
2017-06-03T12:37:53.946Z,50.00
2017-06-03T12:40:21.398Z,50.00
2017-06-03T12:42:48.850Z,49.90
2017-06-03T12:45:16.303Z,49.90
2017-06-03T12:47:43.868Z,49.90
2017-06-03T12:50:11.426Z,49.90
2017-06-03T12:52:38.991Z,49.80
2017-06-03T12:55:06.446Z,49.80
2017-06-03T12:57:34.002Z,49.80
2017-06-03T13:00:01.560Z,49.80
2017-06-03T13:02:29.106Z,49.70
2017-06-03T13:04:56.557Z,49.70
2017-06-03T13:07:24.003Z,49.70
2017-06-03T13:09:51.450Z,49.70
2017-06-03T13:12:18.905Z,49.70
2017-06-03T13:14:46.356Z,49.60
2017-06-03T13:17:13.802Z,49.50
2017-06-03T13:19:41.315Z,49.50
2017-06-03T13:22:08.764Z,49.50
2017-06-03T13:24:36.213Z,49.50
2017-06-03T13:27:03.664Z,49.50
2017-06-03T13:29:31.139Z,49.50
2017-06-03T13:31:58.592Z,49.50
2017-06-03T13:34:26.039Z,49.40
2017-06-03T13:36:53.491Z,49.40
2017-06-03T13:39:20.966Z,49.40
2017-06-03T13:41:48.515Z,49.40
2017-06-03T13:44:15.963Z,49.40
2017-06-03T13:46:43.419Z,49.40
2017-06-03T13:49:10.867Z,49.40
2017-06-03T13:51:38.327Z,49.30
2017-06-03T13:54:05.784Z,49.30
2017-06-03T13:56:33.235Z,49.30
2017-06-03T13:59:00.683Z,49.20
2017-06-03T14:01:28.134Z,49.10
2017-06-03T14:03:55.592Z,49.20
2017-06-03T14:06:23.082Z,49.20
2017-06-03T14:08:50.540Z,49.20
2017-06-03T14:11:17.986Z,49.20
2017-06-03T14:13:45.434Z,49.20
2017-06-03T14:16:12.919Z,49.20
2017-06-03T14:18:40.466Z,49.30
2017-06-03T14:21:07.915Z,49.30
2017-06-03T14:23:35.367Z,49.30
2017-06-03T14:26:02.939Z,49.30
2017-06-03T14:28:30.386Z,49.30
2017-06-03T14:30:57.835Z,49.30
2017-06-03T14:33:25.283Z,49.30
2017-06-03T14:35:52.763Z,49.30
2017-06-03T14:38:20.997Z,49.40
2017-06-03T14:40:48.494Z,49.90
2017-06-03T14:43:15.951Z,49.30
2017-06-03T14:45:43.402Z,49.30
2017-06-03T14:48:10.850Z,49.30
2017-06-03T14:50:38.303Z,49.30
2017-06-03T14:53:05.766Z,49.30
2017-06-03T14:55:33.214Z,49.30
2017-06-03T14:58:00.659Z,49.30
2017-06-03T15:00:28.114Z,49.20
2017-06-03T15:02:55.564Z,49.20
2017-06-03T15:05:23.015Z,49.20
2017-06-03T15:07:50.511Z,49.20
2017-06-03T15:10:17.971Z,49.20
2017-06-03T15:12:45.519Z,49.20
2017-06-03T15:15:12.966Z,49.10
2017-06-03T15:17:40.414Z,49.10
2017-06-03T15:20:07.866Z,49.10
2017-06-03T15:22:35.314Z,49.10
2017-06-03T15:25:02.771Z,49.10
2017-06-03T15:27:30.223Z,49.10
2017-06-03T15:29:57.710Z,49.10
2017-06-03T15:32:25.159Z,49.10
2017-06-03T15:34:52.643Z,49.10
2017-06-03T15:37:20.898Z,49.00
2017-06-03T15:39:48.347Z,49.00
2017-06-03T15:42:15.848Z,48.90
2017-06-03T15:44:44.090Z,48.80
2017-06-03T15:47:11.544Z,48.80
2017-06-03T15:49:38.991Z,48.80
2017-06-03T15:52:06.434Z,48.80
2017-06-03T15:54:33.883Z,48.70
2017-06-03T15:57:01.375Z,48.70
2017-06-03T15:59:28.831Z,48.70
2017-06-03T16:01:56.287Z,48.60
2017-06-03T16:04:23.734Z,48.60
2017-06-03T16:06:51.183Z,48.50
2017-06-03T16:09:18.636Z,48.50
2017-06-03T16:11:46.211Z,48.50
2017-06-03T16:14:13.659Z,48.40
2017-06-03T16:16:41.111Z,48.40
2017-06-03T16:19:08.560Z,48.40
2017-06-03T16:21:36.038Z,48.50
2017-06-03T16:24:03.478Z,48.60
2017-06-03T16:26:30.934Z,48.70
2017-06-03T16:28:58.406Z,48.70
2017-06-03T16:31:25.858Z,48.90
2017-06-03T16:33:53.306Z,48.90
2017-06-03T16:36:20.866Z,49.00
2017-06-03T16:38:48.319Z,49.10
2017-06-03T16:41:15.890Z,49.10
2017-06-03T16:43:43.355Z,49.20
2017-06-03T16:46:10.898Z,49.30
2017-06-03T16:48:38.463Z,49.40
2017-06-03T16:51:05.919Z,49.50
2017-06-03T16:53:33.378Z,50.10
2017-06-03T16:56:00.830Z,49.60
2017-06-03T16:58:28.390Z,49.60
2017-06-03T17:00:55.956Z,49.80
2017-06-03T17:03:23.406Z,49.70
2017-06-03T17:05:50.855Z,49.90
2017-06-03T17:08:18.302Z,49.80
2017-06-03T17:10:45.760Z,50.00
2017-06-03T17:13:13.228Z,49.90
2017-06-03T17:15:40.687Z,50.00
2017-06-03T17:18:08.134Z,50.00
2017-06-03T17:20:35.700Z,50.10
2017-06-03T17:23:03.146Z,50.20
2017-06-03T17:25:30.706Z,50.40
2017-06-03T17:27:58.159Z,50.50
2017-06-03T17:30:25.612Z,50.50
2017-06-03T17:32:53.083Z,50.60
2017-06-03T17:35:20.539Z,50.70
2017-06-03T17:37:48.095Z,50.80
2017-06-03T17:40:15.656Z,50.80
2017-06-03T17:42:43.214Z,50.80
2017-06-03T17:45:10.664Z,50.90
2017-06-03T17:47:38.226Z,50.90
2017-06-03T17:50:05.676Z,51.00
2017-06-03T17:52:33.134Z,51.00
2017-06-03T17:55:00.700Z,51.00
2017-06-03T17:57:28.154Z,51.10
2017-06-03T17:59:55.963Z,51.10
2017-06-03T18:02:23.479Z,51.10
2017-06-03T18:04:50.927Z,51.10
2017-06-03T18:07:18.495Z,51.10
2017-06-03T18:09:45.943Z,51.00
2017-06-03T18:12:13.390Z,51.00
2017-06-03T18:14:40.842Z,50.90
2017-06-03T18:17:08.295Z,50.90
2017-06-03T18:19:35.747Z,50.90
2017-06-03T18:22:18.082Z,50.90
2017-06-03T18:24:45.530Z,50.80
2017-06-03T18:27:28.863Z,50.80
2017-06-03T18:29:56.318Z,50.80
2017-06-03T18:32:23.768Z,50.80
2017-06-03T18:34:51.331Z,50.80
2017-06-03T18:37:18.787Z,50.80
2017-06-03T18:39:46.251Z,50.80
2017-06-03T18:42:13.705Z,50.80
2017-06-03T18:44:41.183Z,50.80
2017-06-03T18:47:09.406Z,50.90
2017-06-03T18:49:36.862Z,50.80
2017-06-03T18:52:04.343Z,50.80
2017-06-03T18:54:31.795Z,50.80
2017-06-03T18:56:59.251Z,50.80
2017-06-03T18:59:26.699Z,50.90
2017-06-03T19:01:54.166Z,50.80
2017-06-03T19:04:21.629Z,50.80
2017-06-03T19:06:49.083Z,50.80
2017-06-03T19:09:16.607Z,50.90
2017-06-03T19:11:44.054Z,50.90
2017-06-03T19:14:11.517Z,50.90
2017-06-03T19:16:38.961Z,50.90
2017-06-03T19:19:06.410Z,50.90
2017-06-03T19:21:33.879Z,50.90
2017-06-03T19:24:01.371Z,51.00
2017-06-03T19:26:28.839Z,50.90
2017-06-03T19:28:56.290Z,50.90
2017-06-03T19:31:23.743Z,50.80
2017-06-03T19:33:51.199Z,50.80
2017-06-03T19:36:18.755Z,50.70
2017-06-03T19:38:46.214Z,50.70
2017-06-03T19:41:13.664Z,50.70
2017-06-03T19:43:41.231Z,50.70
2017-06-03T19:46:08.687Z,50.70
2017-06-03T19:48:36.366Z,50.70
2017-06-03T19:51:04.584Z,50.70
2017-06-03T19:53:32.043Z,50.60
2017-06-03T19:55:59.496Z,50.60
2017-06-03T19:58:26.959Z,50.60
2017-06-03T20:00:54.418Z,50.70
2017-06-03T20:03:21.862Z,50.60
2017-06-03T20:05:49.317Z,50.60
2017-06-03T20:08:16.810Z,50.60
2017-06-03T20:10:44.262Z,50.60
2017-06-03T20:13:11.716Z,50.60
2017-06-03T20:15:39.167Z,51.10
2017-06-03T20:18:06.621Z,50.60
2017-06-03T20:20:34.075Z,50.60
2017-06-03T20:23:01.528Z,50.50
2017-06-03T20:25:28.996Z,50.50
2017-06-03T20:27:56.471Z,50.60
2017-06-03T20:30:23.930Z,50.50
2017-06-03T20:32:51.383Z,50.50
2017-06-03T20:35:18.834Z,50.50
2017-06-03T20:37:46.302Z,50.50
2017-06-03T20:40:14.514Z,50.50
2017-06-03T20:42:41.979Z,50.50
2017-06-03T20:45:09.434Z,50.50
2017-06-03T20:47:36.879Z,50.50
2017-06-03T20:50:04.331Z,50.50
2017-06-03T20:52:31.780Z,50.40
2017-06-03T20:54:59.231Z,50.40
2017-06-03T20:57:26.759Z,50.40
2017-06-03T20:59:54.214Z,50.40
2017-06-03T21:02:21.675Z,50.40
2017-06-03T21:04:49.131Z,50.40
2017-06-03T21:07:16.591Z,50.40
2017-06-03T21:09:44.039Z,50.40
2017-06-03T21:12:11.495Z,50.40
2017-06-03T21:14:38.942Z,50.40
2017-06-03T21:17:06.391Z,50.40
2017-06-03T21:19:33.842Z,50.40
2017-06-03T21:22:01.294Z,50.40
2017-06-03T21:24:28.775Z,50.40
2017-06-03T21:26:56.223Z,50.40
2017-06-03T21:29:23.678Z,50.40
2017-06-03T21:31:51.131Z,50.30
2017-06-03T21:34:18.578Z,50.30
2017-06-03T21:36:46.058Z,50.30
2017-06-03T21:39:13.514Z,50.30
2017-06-03T21:41:40.959Z,50.30
2017-06-03T21:44:08.411Z,50.30
2017-06-03T21:46:35.858Z,50.30
2017-06-03T21:49:03.306Z,50.30
2017-06-03T22:04:43.855Z,50.00
2017-06-03T22:07:11.323Z,50.50
2017-06-03T22:09:38.771Z,50.60
2017-06-03T22:12:06.230Z,50.60
2017-06-03T22:14:33.692Z,50.60
2017-06-03T22:17:01.274Z,50.60
2017-06-03T22:19:28.723Z,50.60
2017-06-03T22:21:56.170Z,50.70
2017-06-03T22:24:23.740Z,50.70
2017-06-03T22:26:51.191Z,50.70
2017-06-03T22:29:18.752Z,50.70
2017-06-03T22:31:46.210Z,50.70
2017-06-03T22:34:14.452Z,50.80
2017-06-03T22:36:41.900Z,50.80
2017-06-03T22:39:09.390Z,50.80
2017-06-03T22:41:36.842Z,50.80
2017-06-03T22:44:04.416Z,50.80
2017-06-03T22:46:31.867Z,50.80
2017-06-03T22:48:59.426Z,50.70
2017-06-03T22:51:26.883Z,50.70
2017-06-03T22:53:54.459Z,50.80
2017-06-03T22:56:22.691Z,50.90
2017-06-03T22:58:50.138Z,50.70
2017-06-03T23:01:17.594Z,50.80
2017-06-03T23:03:45.050Z,50.80
2017-06-03T23:06:12.543Z,50.80
2017-06-03T23:08:40.716Z,50.80
2017-06-03T23:11:08.182Z,50.80
2017-06-03T23:13:35.636Z,50.80
2017-06-03T23:16:03.871Z,50.30
2017-06-03T23:18:31.326Z,50.80
2017-06-03T23:20:58.775Z,50.80
2017-06-03T23:23:26.279Z,50.80
2017-06-03T23:25:53.725Z,50.80
2017-06-03T23:28:21.183Z,50.80
2017-06-03T23:30:48.640Z,50.80
2017-06-03T23:33:16.099Z,50.90
2017-06-03T23:35:43.550Z,50.90
2017-06-03T23:38:11.011Z,50.90
2017-06-03T23:40:38.567Z,50.90
2017-06-03T23:43:06.047Z,50.90
2017-06-03T23:45:34.266Z,50.90
2017-06-03T23:48:01.712Z,50.90
2017-06-03T23:50:29.166Z,50.90
2017-06-03T23:52:56.623Z,50.90
2017-06-03T23:55:24.114Z,50.90
2017-06-03T23:57:51.576Z,50.90
